Tiempo atmosférico en la estación meteorológica de El Bosque, Cádiz (295 m.)



Fecha
DESCASC
Temp. máxima en grados centígrados (hora)
DESCASC
Temp. mínima en grados centígrados (hora)
DESCASC
Temp. media en grados centígrados
DESCASC
Racha de viento máxima en m/sg (hora)
DESCASC
Velocidad máxima media en intervalos de 10 minutos(hora)
DESCASC
Precipitaciones diarias en mm
DESCASC
Precipitaciones de 00:00 a 06:00 en mm
DESCASC
Precipitaciones de 06:00 a 12:00 en mm
DESCASC
Precipitaciones de 12:00 a 18:00 en mm
DESCASC
Precipitaciones de 18:00 a 24:00 en mm
DESCASC
20-09-2020 26.2 (15:30) 12.9 (08:00) 19.6 7.78 (16:10) 3.89 (14:40) 0 0 0 0 0
19-09-2020 23.7 (18:30) 16.9 (23:59) 20.3 6.11 (14:30) 3.61 (13:50) 3.8 0.2 0 3.6 0
18-09-2020 26.2 (13:30) 18.3 (23:59) 22.3 18.61 (03:00) 10.28 (14:10) 5.4 0.6 1 0 3.8
17-09-2020 29.4 (16:10) 21.9 (00:00) 25.6 18.33 (21:10) 9.72 (19:30) 0 0 0 0 0
16-09-2020 30.8 (15:50) 17 (00:00) 23.9 8.61 (13:10) 5.28 (13:10) 0 0 0 0 0
15-09-2020 31.6 (17:40) 16.5 (00:00) 24.1 6.94 (14:20) 4.17 (14:40) 0 0 0 0 0
14-09-2020 30.2 (15:10) 21.5 (00:00) 25.9 13.61 (00:20) 7.5 (14:30) 0 0 0 0 0
13-09-2020 33.2 (16:20) 25 (00:00) 29.1 16.39 (23:30) 8.61 (04:00) 0 0 0 0 0
12-09-2020 35 (15:30) 18.1 (00:00) 26.6 12.5 (23:59) 7.78 (22:10) 0 0 0 0 0
11-09-2020 33.1 (15:40) 17.9 (00:00) 25.5 10.83 (15:20) 6.67 (15:20) 0 0 0 0 0
10-09-2020 34.4 (17:30) 17.2 (00:00) 25.8 8.61 (18:20) 4.72 (18:40) 0 0 0 0 0
09-09-2020 31 (15:50) 17.3 (00:00) 24.1 9.44 (00:40) 5.28 (01:10) 0 0 0 0 0
08-09-2020 29.7 (12:40) 22.1 (00:00) 25.9 12.22 (03:20) 7.22 (15:50) 0 0 0 0 0
07-09-2020 35.4 (16:20) 18 (08:20) 26.7 7.22 (00:30) 3.89 (00:20) 0 0 0 0 0
06-09-2020 31.6 (15:50) 18.2 (00:00) 24.9 10.83 (14:40) 6.67 (13:40) 0 0 0 0 0
05-09-2020 32.1 (16:30) 16.8 (00:00) 24.4 10 (13:10) 6.11 (13:10) 0 0 0 0 0
04-09-2020 31.6 (16:30) 19.2 (00:00) 25.4 11.94 (00:20) 7.78 (00:20) 0 0 0 0 0
03-09-2020 32.3 (16:10) 17.9 (00:00) 25.1 12.78 (23:59) 8.33 (23:50) 0 0 0 0 0
02-09-2020 32 (16:20) 14.8 (00:00) 23.4 8.61 (17:40) 5.28 (17:30) 0 0 0 0 0
01-09-2020 31.4 (18:30) 15 (00:00) 23.2 7.22 (19:20) 4.44 (19:20) 0 0 0 0 0
31-08-2020 31 (17:00) 15.4 (00:00) 23.2 11.94 (15:30) 6.94 (14:50) 0 0 0 0 0
30-08-2020 31.9 (16:10) 14 (00:00) 22.9 8.89 (19:40) 5.56 (19:40) 0 0 0 0 0
29-08-2020 28.3 (18:20) 13.5 (00:00) 20.9 10.56 (16:40) 5.28 (17:40) 0 0 0 0 0
28-08-2020 31.6 (17:00) 18 (00:00) 24.8 10.56 (17:00) 3.89 (14:10) 0 0 0 0 0
27-08-2020 39.4 (16:30) 21.3 (00:00) 30.4 7.78 (16:40) 4.17 (17:40) 0 0 0 0 0
26-08-2020 39.1 (17:00) 19.2 (00:00) 29.1 6.67 (14:30) 3.61 (15:20) 0 0 0 0 0
25-08-2020 35.9 (18:00) 19 (00:00) 27.5 7.78 (15:30) 4.72 (16:40) 0 0 0 0 0
24-08-2020 34 (15:30) 20.7 (00:00) 27.4 9.44 (13:40) 5.83 (13:40) 0 0 0 0 0
23-08-2020 37.7 (17:00) 18.4 (00:00) 28.1 8.06 (18:30) 4.17 (23:20) 0 0 0 0 0

Gráficas

Temp. máximas Temp. mínimas Temp. medias Precipitaciones Rachas de viento máximas Velocidades máximas media en intervalos de 10 minutos

Datos horarios

Fecha y hora oficial Temperatura (ºC) Velocidad del viento (km/h) Dirección del viento Racha (km/h) Dirección de racha Precipitación (mm) Presión (hPa) Tendencia (hPa) Humedad (%)
2020-09-21 23:00:00 21 8 Norte 10 Norte 0 -- -- 60
2020-09-21 22:00:00 22.7 0 Calma 7 Norte 0 -- -- 52
2020-09-21 21:00:00 24.5 4 Norte 11 Norte 0 -- -- 45
2020-09-21 20:00:00 26.7 6 Noroeste 17 Norte 0 -- -- 40
2020-09-21 19:00:00 28.9 11 Noroeste 21 Oeste 0 -- -- 30
2020-09-21 18:00:00 29.6 11 Noroeste 23 Oeste 0 -- -- 33
2020-09-21 17:00:00 29.7 12 Noroeste 25 Noroeste 0 -- -- 34
2020-09-21 16:00:00 30 12 Noroeste 28 Noroeste 0 -- -- 37
2020-09-21 15:00:00 29.4 12 Noroeste 25 Norte 0 -- -- 37
2020-09-21 14:00:00 28.7 14 Noroeste 27 Noroeste 0 -- -- 38
2020-09-21 13:00:00 27.4 11 Noroeste 22 Noroeste 0 -- -- 40
2020-09-21 12:00:00 24.9 4 Sudoeste 9 Oeste 0 -- -- 56
2020-09-21 11:00:00 20.9 3 Sudoeste 8 Sudoeste 0 -- -- 69
2020-09-21 10:00:00 17.4 0 Calma 5 Sudeste 0 -- -- 87
2020-09-21 09:00:00 16.3 4 Sudeste 7 Sudeste 0 -- -- 87
2020-09-21 08:00:00 16 2 Sudeste 9 Este 0 -- -- 87
2020-09-21 07:00:00 16 5 Nordeste 9 Este 0 -- -- 89
2020-09-21 06:00:00 15.8 0 Calma 8 Este 0 -- -- 88
2020-09-21 05:00:00 16.2 2 Sudeste 8 Este 0 -- -- 85
2020-09-21 04:00:00 16.4 4 Este 10 Sudeste 0 -- -- 84
2020-09-21 03:00:00 17 5 Este 8 Este 0 -- -- 81
2020-09-21 02:00:00 18 4 Este 12 Norte 0 -- -- 78
2020-09-21 01:00:00 18.5 8 Norte 14 Norte 0 -- -- 79
2020-09-21 00:00:00 18.7 8 Noroeste 17 Noroeste 0 -- -- 77
2020-09-20 23:00:00 19.8 10 Norte 19 Norte 0 -- -- 72
2020-09-20 22:00:00 20.5 6 Norte 10 Norte 0 -- -- 66
2020-09-20 21:00:00 21.6 4 Nordeste 8 Norte 0 -- -- 61
2020-09-20 20:00:00 23.4 6 Noroeste 20 Noroeste 0 -- -- 55
2020-09-20 19:00:00 24.4 10 Noroeste 23 Noroeste 0 -- -- 53
2020-09-20 18:00:00 25.6 11 Noroeste 27 Noroeste 0 -- -- 52
2020-09-20 17:00:00 25.9 13 Noroeste 28 Noroeste 0 -- -- 49
2020-09-20 16:00:00 26.2 10 Noroeste 24 Noroeste 0 -- -- 48
2020-09-20 15:00:00 25.4 14 Noroeste 27 Oeste 0 -- -- 53
2020-09-20 14:00:00 25.4 9 Noroeste 22 Oeste 0 -- -- 49
2020-09-20 13:00:00 23.4 8 Oeste 13 Oeste 0 -- -- 65
2020-09-20 12:00:00 21.2 5 Noroeste 11 Oeste 0 -- -- 75
2020-09-20 11:00:00 18.8 2 Oeste 6 Sur 0 -- -- 82
2020-09-20 10:00:00 15.2 0 Calma 4 Sudeste 0 -- -- 90
2020-09-20 09:00:00 13.4 0 Calma 4 Este 0 -- -- 94
2020-09-20 08:00:00 12.9 0 Calma 2 Nordeste 0 -- -- 93
2020-09-20 07:00:00 13.1 0 Calma 5 Este 0 -- -- 92
2020-09-20 06:00:00 13.4 3 Nordeste 8 Este 0 -- -- 91
2020-09-20 05:00:00 13.7 2 Este 10 Este 0 -- -- 89
2020-09-20 04:00:00 14 6 Este 10 Este 0 -- -- 88
2020-09-20 03:00:00 14.9 3 Nordeste 12 Este 0 -- -- 86
2020-09-20 02:00:00 15.5 6 Este 11 Este 0 -- -- 87
2020-09-20 01:00:00 16 5 Este 10 Este 0 -- -- 89
2020-09-20 00:00:00 16.9 6 Este 9 Este 0 -- -- 87
2020-09-19 23:00:00 18 3 Norte 5 Norte 0 -- -- 85
2020-09-19 22:00:00 18.7 2 Norte 6 Norte 0 -- -- 79
2020-09-19 21:00:00 20 4 Noroeste 11 Oeste 0 -- -- 75
2020-09-19 20:00:00 21.9 6 Oeste 22 Noroeste 0 -- -- 66
2020-09-19 19:00:00 23.2 12 Oeste 22 Oeste 0 -- -- 70
2020-09-19 18:00:00 23.1 9 Oeste 19 Oeste 0 -- -- 71
2020-09-19 17:00:00 21.2 5 Sudeste 12 Sudeste 0 -- -- 83
2020-09-19 16:00:00 19.7 3 Nordeste 15 Sudoeste 0.2 -- -- 90
2020-09-19 15:00:00 19.2 10 Oeste 22 Oeste 1.8 -- -- 91
2020-09-19 14:00:00 20.9 10 Oeste 22 Oeste 1.6 -- -- 84
2020-09-19 13:00:00 21.8 11 Sudoeste 19 Sur 0 -- -- 71
2020-09-19 12:00:00 21.1 9 Sudoeste 20 Sudoeste 0 -- -- 73
2020-09-19 11:00:00 20.1 7 Sur 15 Sur 0 -- -- 79
2020-09-19 10:00:00 19.5 6 Sudeste 16 Sudeste 0 -- -- 78
2020-09-19 09:00:00 18.4 8 Sudeste 15 Este 0 -- -- 81
2020-09-19 08:00:00 18.4 9 Sudeste 19 Sudeste 0 -- -- 81
2020-09-19 07:00:00 18.3 9 Sudeste 16 Sur 0 -- -- 83
2020-09-19 06:00:00 18.6 8 Sudeste 16 Sudeste 0 -- -- 83
2020-09-19 05:00:00 18.6 10 Sudeste 19 Sur 0 -- -- 82
2020-09-19 04:00:00 18.7 9 Sudeste 17 Sudeste 0 -- -- 82
2020-09-19 03:00:00 18.8 10 Sur 21 Sudeste 0 -- -- 83
2020-09-19 02:00:00 18.9 11 Sudeste 21 Sur 0.2 -- -- 85
2020-09-19 01:00:00 18.6 9 Sur 19 Sudeste 0 -- -- 86
2020-09-19 00:00:00 18.3 7 Sudoeste 20 Sur 3.8 -- -- 89
2020-09-18 23:00:00 19.8 10 Sur 22 Sur 0 -- -- 78
2020-09-18 22:00:00 20.2 11 Sur 21 Sur 0 -- -- 75
2020-09-18 21:00:00 20.3 10 Sur 24 Sur 0 -- -- 72
2020-09-18 20:00:00 21.3 16 Sur 31 Sur 0 -- -- 73
2020-09-18 19:00:00 22.3 20 Sur 34 Sudoeste 0 -- -- 68
2020-09-18 18:00:00 23.8 18 Sudoeste 38 Sudoeste 0 -- -- 61
2020-09-18 17:00:00 23.3 18 Sur 45 Sudoeste 0 -- -- 66
2020-09-18 16:00:00 24.4 28 Sudoeste 50 Sur 0 -- -- 54
2020-09-18 15:00:00 25.5 30 Sur 59 Sur 0 -- -- 51
2020-09-18 14:00:00 25.8 27 Sur 57 Sur 0 -- -- 49
2020-09-18 13:00:00 25.3 31 Sur 51 Sudeste 0 -- -- 52
2020-09-18 12:00:00 24.5 29 Sudeste 53 Sudeste 0 -- -- 61
2020-09-18 11:00:00 23.7 22 Sudeste 42 Sudeste 0 -- -- 67
2020-09-18 10:00:00 22 17 Sur 64 Sudeste 0.2 -- -- 73
2020-09-18 09:00:00 20.8 24 Sur 55 Sudeste 0 -- -- 76
2020-09-18 08:00:00 20 22 Sudeste 39 Sudeste 0 -- -- 83
2020-09-18 07:00:00 19.1 12 Sur 26 Sudeste 0.8 -- -- 86
2020-09-18 06:00:00 20.3 20 Sudeste 39 Sudeste 0 -- -- 76
2020-09-18 05:00:00 19.9 22 Sudeste 50 Sudeste 0.6 -- -- 79
2020-09-18 04:00:00 20.8 16 Sudeste 51 Este 0 -- -- 76
2020-09-18 03:00:00 21.8 30 Sudeste 67 Sur 0 -- -- 68
2020-09-18 02:00:00 22.7 30 Sudeste 54 Sudeste 0 -- -- 60
2020-09-18 01:00:00 22.8 36 Sudeste 57 Sudeste 0 -- -- 60
2020-09-18 00:00:00 23.4 34 Sudeste 60 Sudeste 0 -- -- 57
2020-09-17 23:00:00 23.7 19 Sur 50 Sudeste 0 -- -- 56
2020-09-17 22:00:00 24.3 26 Sudeste 66 Sudeste 0 -- -- 53
2020-09-17 21:00:00 25.1 32 Sudeste 58 Sudeste 0 -- -- 51
2020-09-17 20:00:00 25.3 26 Sudeste 60 Sudeste 0 -- -- 55
2020-09-17 19:00:00 26.9 32 Sudeste 63 Este 0 -- -- 50
2020-09-17 18:00:00 27.5 29 Sudeste 58 Sudeste 0 -- -- 50
2020-09-17 17:00:00 28.6 31 Sudeste 52 Sudeste 0 -- -- 49
2020-09-17 16:00:00 29.3 20 Sur 39 Sur 0 -- -- 48
2020-09-17 15:00:00 27.9 20 Sudoeste 34 Sudoeste 0 -- -- 55
2020-09-17 14:00:00 28.9 19 Sur 36 Sudeste 0 -- -- 46
2020-09-17 13:00:00 27.9 21 Sudeste 45 Sudeste 0 -- -- 48
2020-09-17 12:00:00 28 27 Sudeste 51 Sudeste 0 -- -- 46
2020-09-17 11:00:00 26.5 20 Sudeste 44 Sudeste 0 -- -- 53
2020-09-17 10:00:00 25 21 Sudeste 46 Sudeste 0 -- -- 61
2020-09-17 09:00:00 23.2 12 Sur 28 Sur 0 -- -- 66
2020-09-17 08:00:00 23.3 17 Sudeste 43 Sudeste 0 -- -- 65
2020-09-17 07:00:00 23.5 24 Sudeste 59 Sudeste 0 -- -- 65
2020-09-17 06:00:00 23.9 21 Sudeste 57 Sudeste 0 -- -- 64
2020-09-17 05:00:00 23.2 15 Sur 40 Sudeste 0 -- -- 66
2020-09-17 04:00:00 22.9 18 Sudeste 39 Sudeste 0 -- -- 69
2020-09-17 03:00:00 22.5 12 Sur 39 Sudeste 0 -- -- 73
2020-09-17 02:00:00 22.4 19 Sudeste 39 Sur 0 -- -- 71
2020-09-17 01:00:00 22.1 16 Sur 35 Sur 0 -- -- 69
2020-09-17 00:00:00 23.2 13 Sur 23 Sur 0 -- -- 61
2020-09-16 23:00:00 23.9 11 Sur 25 Sur 0 -- -- 57
2020-09-16 22:00:00 23.4 13 Sudeste 28 Este 0 -- -- 66
2020-09-16 21:00:00 23.6 8 Sudeste 25 Sudoeste 0 -- -- 66
2020-09-16 20:00:00 24.7 15 Sudoeste 22 Sudoeste 0 -- -- 59
2020-09-16 19:00:00 26.1 12 Sur 21 Sudoeste 0 -- -- 52
2020-09-16 18:00:00 27.2 17 Sudoeste 24 Sudoeste 0 -- -- 51
2020-09-16 17:00:00 29.7 14 Sur 29 Sur 0 -- -- 38
2020-09-16 16:00:00 30.8 16 Sur 29 Sudoeste 0 -- -- 33
2020-09-16 15:00:00 29.7 18 Sudoeste 28 Sur 0 -- -- 41
2020-09-16 14:00:00 28.6 19 Sudoeste 31 Sur 0 -- -- 49
2020-09-16 13:00:00 27.7 18 Sudoeste 29 Sudoeste 0 -- -- 52
2020-09-16 12:00:00 25.6 4 Norte 11 Sur 0 -- -- 57
2020-09-16 11:00:00 23.8 4 Sudoeste 9 Sudoeste 0 -- -- 65
2020-09-16 10:00:00 20.1 2 Este 12 Sudeste 0 -- -- 80
2020-09-16 09:00:00 17.7 3 Este 10 Este 0 -- -- 91
2020-09-16 08:00:00 17 4 Este 7 Este 0 -- -- 91
2020-09-16 07:00:00 17.4 0 Calma 7 Sudeste 0 -- -- 90
2020-09-16 06:00:00 17.6 2 Sudeste 8 Este 0 -- -- 89
2020-09-16 05:00:00 18 3 Este 10 Sudeste 0 -- -- 87
2020-09-16 04:00:00 18.3 3 Sudeste 7 Este 0 -- -- 85
2020-09-16 03:00:00 19.2 0 Calma -- -- 0 -- -- 84
2020-09-16 02:00:00 19.8 0 Calma 0 Calma 0 -- -- 79
2020-09-16 01:00:00 20.7 0 Calma -- -- 0 -- -- 80
2020-09-16 00:00:00 21.7 0 Calma 4 Sudoeste 0 -- -- 78
2020-09-15 23:00:00 22.7 2 Sur 8 Sur 0 -- -- 73
2020-09-15 22:00:00 23.9 3 Sur 9 Sur 0 -- -- 70
2020-09-15 21:00:00 25.5 5 Sudoeste 16 Sur 0 -- -- 63
2020-09-15 20:00:00 28.1 10 Sur 19 Sur 0 -- -- 53
2020-09-15 19:00:00 29.9 13 Sur 20 Sur 0 -- -- 45
2020-09-15 18:00:00 31.2 9 Sur 20 Sur 0 -- -- 41
2020-09-15 17:00:00 31.3 8 Oeste 22 Sudoeste 0 -- -- 42
2020-09-15 16:00:00 30.7 9 Sur 21 Oeste 0 -- -- 43
2020-09-15 15:00:00 30 13 Sudoeste 25 Sudoeste 0 -- -- 45
2020-09-15 14:00:00 29.2 8 Sur 21 Oeste 0 -- -- 47
2020-09-15 13:00:00 27.2 3 Nordeste 17 Sudoeste 0 -- -- 51
2020-09-15 12:00:00 25.8 6 Noroeste 13 Oeste 0 -- -- 54
2020-09-15 11:00:00 23.3 4 Noroeste 7 Sudoeste 0 -- -- 63
2020-09-15 10:00:00 20.3 3 Sur 6 Sudeste 0 -- -- 75
2020-09-15 09:00:00 16.8 3 Este 8 Este 0 -- -- 89
2020-09-15 08:00:00 16.5 6 Este 8 Este 0 -- -- 89
2020-09-15 07:00:00 17.3 5 Este 8 Este 0 -- -- 87
2020-09-15 06:00:00 17.9 3 Este 8 Noroeste 0 -- -- 86
2020-09-15 05:00:00 18.5 6 Noroeste 9 Noroeste 0 -- -- 87
2020-09-15 04:00:00 19.6 4 Nordeste 15 Norte 0 -- -- 84
2020-09-15 03:00:00 20.6 12 Norte 20 Norte 0 -- -- 82
2020-09-15 02:00:00 21.1 3 Nordeste 11 Nordeste 0 -- -- 74
2020-09-15 01:00:00 21.7 0 Calma 18 Este 0 -- -- 72
2020-09-15 00:00:00 21.6 6 Este 15 Este 0 -- -- 72
2020-09-14 23:00:00 22.3 4 Sudeste 18 Sur 0 -- -- 71
2020-09-14 22:00:00 23.4 8 Sudeste 18 Este 0 -- -- 68
2020-09-14 21:00:00 24.7 7 Sur 22 Sur 0 -- -- 63
2020-09-14 20:00:00 26.2 12 Sur 28 Sur 0 -- -- 58
2020-09-14 19:00:00 27.9 9 Sur 35 Sur 0 -- -- 54
2020-09-14 18:00:00 28.9 21 Sur 40 Sudoeste 0 -- -- 51
2020-09-14 17:00:00 28.9 23 Sur 37 Sur 0 -- -- 50
2020-09-14 16:00:00 28.9 22 Sur 37 Sur 0 -- -- 49
2020-09-14 15:00:00 29.7 16 Sudeste 40 Sur 0 -- -- 40
2020-09-14 14:00:00 28.3 26 Sur 43 Sur 0 -- -- 43
2020-09-14 13:00:00 29.1 21 Sudeste 40 Sudeste 0 -- -- 40
2020-09-14 12:00:00 28.3 19 Sur 29 Sudeste 0 -- -- 43
2020-09-14 11:00:00 27.4 13 Sudeste 31 Sudeste 0 -- -- 42
2020-09-14 10:00:00 26.4 12 Sudeste 23 Sur 0 -- -- 43
2020-09-14 09:00:00 25 10 Sudeste 24 Nordeste 0 -- -- 47
2020-09-14 08:00:00 24.4 10 Sudoeste 17 Sudoeste 0 -- -- 48
2020-09-14 07:00:00 24.2 9 Sur 19 Sur 0 -- -- 49
2020-09-14 06:00:00 22.6 0 Calma 13 Norte 0 -- -- 55
2020-09-14 05:00:00 23.1 10 Norte 17 Norte 0 -- -- 53
2020-09-14 04:00:00 23.3 7 Norte 14 Norte 0 -- -- 53
2020-09-14 03:00:00 23.6 8 Norte 18 Nordeste 0 -- -- 49
2020-09-14 02:00:00 24.3 5 Norte 18 Sudeste 0 -- -- 47
2020-09-14 01:00:00 26.9 12 Sudeste 49 Sudeste 0 -- -- 38
2020-09-14 00:00:00 27 23 Sudeste 59 Sudeste 0 -- -- 38
2020-09-13 23:00:00 27.9 25 Sudeste 48 Sudeste 0 -- -- 35
2020-09-13 22:00:00 27.1 15 Sudeste 28 Sur 0 -- -- 35
2020-09-13 21:00:00 26.4 13 Sur 30 Sur 0 -- -- 41
2020-09-13 20:00:00 28.3 19 Sur 32 Sur 0 -- -- 36
2020-09-13 19:00:00 30.5 20 Sudeste 35 Sudeste 0 -- -- 32
2020-09-13 18:00:00 31.8 22 Sur 41 Sur 0 -- -- 30
2020-09-13 17:00:00 32.3 25 Sur 42 Sur 0 -- -- 30
2020-09-13 16:00:00 32.5 22 Sur 38 Sur 0 -- -- 29
2020-09-13 15:00:00 32.5 21 Sudeste 42 Este 0 -- -- 28
2020-09-13 14:00:00 32.5 22 Sudeste 42 Sudeste 0 -- -- 26
2020-09-13 13:00:00 31 23 Sudeste 43 Sudeste 0 -- -- 29
2020-09-13 12:00:00 30.7 25 Sudeste 36 Sudeste 0 -- -- 31
2020-09-13 11:00:00 30.2 18 Sudeste 38 Sudeste 0 -- -- 30
2020-09-13 10:00:00 26.7 4 Sur 10 Sudoeste 0 -- -- 36
2020-09-13 09:00:00 25.1 4 Norte 19 Norte 0 -- -- 40
2020-09-13 08:00:00 25.6 15 Norte 36 Sudeste 0 -- -- 39
2020-09-13 07:00:00 26.5 6 Sudoeste 37 Sudeste 0 -- -- 33
2020-09-13 06:00:00 27.7 18 Sudeste 51 Este 0 -- -- 31
2020-09-13 05:00:00 28 27 Sudeste 50 Sudeste 0 -- -- 31
2020-09-13 04:00:00 27.9 31 Sudeste 53 Sudeste 0 -- -- 31
2020-09-13 03:00:00 27.7 26 Sudeste 54 Sudeste 0 -- -- 31
2020-09-13 02:00:00 28.2 21 Sudeste 41 Sudeste 0 -- -- 30
2020-09-13 01:00:00 28.4 17 Sudeste 44 Sudeste 0 -- -- 30
2020-09-13 00:00:00 28.6 25 Sudeste 45 Sudeste 0 -- -- 29
2020-09-12 23:00:00 28.9 22 Sudeste 45 Sudeste 0 -- -- 27
2020-09-12 22:00:00 29.3 27 Sudeste 41 Sudeste 0 -- -- 26
2020-09-12 21:00:00 29.4 17 Sudeste 31 Sudeste 0 -- -- 24
2020-09-12 20:00:00 29.9 17 Sudeste 38 Este 0 -- -- 24
2020-09-12 19:00:00 30.8 22 Sudeste 33 Sudeste 0 -- -- 24
2020-09-12 18:00:00 32.2 18 Sudeste 36 Sur 0 -- -- 23
2020-09-12 17:00:00 32.3 19 Sur 44 Sur 0 -- -- 24
2020-09-12 16:00:00 34.8 23 Sudeste 36 Sudeste 0 -- -- 21
2020-09-12 15:00:00 34.6 20 Sudeste 37 Sudeste 0 -- -- 22
2020-09-12 14:00:00 33.8 14 Sudeste 28 Sudeste 0 -- -- 24
2020-09-12 13:00:00 33.5 13 Sudeste 28 Sur 0 -- -- 24
2020-09-12 12:00:00 31 5 Norte 13 Norte 0 -- -- 27
2020-09-12 11:00:00 27.8 4 Oeste 8 Noroeste 0 -- -- 33
2020-09-12 10:00:00 23.2 4 Norte 7 Norte 0 -- -- 45
2020-09-12 09:00:00 19.1 3 Sudeste 12 Sudeste 0 -- -- 54
2020-09-12 08:00:00 18.3 4 Sudeste 9 Este 0 -- -- 55
2020-09-12 07:00:00 18.6 3 Sur 6 Nordeste 0 -- -- 54
2020-09-12 06:00:00 19.3 5 Sudeste 11 Este 0 -- -- 51
2020-09-12 05:00:00 19.3 4 Este 12 Sudeste 0 -- -- 51
2020-09-12 04:00:00 19.2 3 Este 12 Este 0 -- -- 52
2020-09-12 03:00:00 19.7 2 Nordeste 12 Este 0 -- -- 52
2020-09-12 02:00:00 20.7 3 Este 10 Sudeste 0 -- -- 49
2020-09-12 01:00:00 21.4 4 Este 9 Sur 0 -- -- 47
2020-09-12 00:00:00 22.6 5 Nordeste 9 Sudeste 0 -- -- 45
2020-09-11 23:00:00 23.9 5 Sudeste 10 Este 0 -- -- 44
2020-09-11 22:00:00 25.9 5 Nordeste 15 Este 0 -- -- 41
2020-09-11 21:00:00 27.7 13 Este 21 Sudoeste 0 -- -- 36
2020-09-11 20:00:00 29.4 12 Sudoeste 26 Sudoeste 0 -- -- 35
2020-09-11 19:00:00 31 11 Sudoeste 31 Sudoeste 0 -- -- 34
2020-09-11 18:00:00 32.6 16 Sur 35 Sur 0 -- -- 28
2020-09-11 17:00:00 32.4 19 Sur 38 Sudoeste 0 -- -- 30
2020-09-11 16:00:00 31.8 22 Sur 39 Sur 0 -- -- 32
2020-09-11 15:00:00 32.4 22 Sur 36 Sudoeste 0 -- -- 30
2020-09-11 14:00:00 31.8 23 Sur 33 Sur 0 -- -- 30
2020-09-11 13:00:00 31.5 14 Sur 26 Sur 0 -- -- 27
2020-09-11 12:00:00 29.8 14 Sur 24 Sur 0 -- -- 30
2020-09-11 11:00:00 27.6 3 Noroeste 10 Nordeste 0 -- -- 35
2020-09-11 10:00:00 22.6 5 Norte 8 Nordeste 0 -- -- 47
2020-09-11 09:00:00 19.3 4 Sudeste 10 Este 0 -- -- 56
2020-09-11 08:00:00 18.1 6 Sudeste 12 Sudeste 0 -- -- 61
2020-09-11 07:00:00 18.4 5 Este 10 Este 0 -- -- 62
2020-09-11 06:00:00 18.3 3 Nordeste 10 Este 0 -- -- 63
2020-09-11 05:00:00 18.7 0 Calma 8 Este 0 -- -- 62
2020-09-11 04:00:00 18.6 3 Sudeste 10 Sudeste 0 -- -- 62
2020-09-11 03:00:00 19.3 4 Este 12 Este 0 -- -- 61
2020-09-11 02:00:00 20.1 3 Norte 15 Sudeste 0 -- -- 58
2020-09-11 01:00:00 19.8 9 Sudeste 13 Este 0 -- -- 59
2020-09-11 00:00:00 21.9 0 Calma 9 Nordeste 0 -- -- 54
2020-09-10 23:00:00 23.3 6 Este 18 Sudeste 0 -- -- 48
2020-09-10 22:00:00 24.8 6 Sudeste 13 Sudeste 0 -- -- 44
2020-09-10 21:00:00 27.4 9 Sudeste 14 Sur 0 -- -- 38
2020-09-10 20:00:00 30.2 9 Sur 22 Sudeste 0 -- -- 34
2020-09-10 19:00:00 32.2 12 Sur 31 Noroeste 0 -- -- 32
2020-09-10 18:00:00 34.2 14 Oeste 27 Noroeste 0 -- -- 26
2020-09-10 17:00:00 34.2 11 Noroeste 27 Oeste 0 -- -- 27
2020-09-10 16:00:00 33.6 14 Oeste 26 Oeste 0 -- -- 29
2020-09-10 15:00:00 33 8 Sudoeste 24 Sudoeste 0 -- -- 30
2020-09-10 14:00:00 31.8 11 Oeste 19 Oeste 0 -- -- 33
2020-09-10 13:00:00 29.9 4 Sudeste 12 Oeste 0 -- -- 37
2020-09-10 12:00:00 27.8 6 Noroeste 11 Oeste 0 -- -- 41
2020-09-10 11:00:00 25.4 5 Sudoeste 9 Sudoeste 0 -- -- 46
2020-09-10 10:00:00 21.9 0 Calma 4 Nordeste 0 -- -- 57
2020-09-10 09:00:00 18.1 5 Este 7 Este 0 -- -- 67
2020-09-10 08:00:00 17.2 3 Este 9 Este 0 -- -- 71
2020-09-10 07:00:00 17.2 3 Este 7 Sudeste 0 -- -- 73
2020-09-10 06:00:00 17.8 2 Nordeste 15 Sudeste 0 -- -- 74
2020-09-10 05:00:00 18.5 13 Sudeste 18 Sudeste 0 -- -- 71
2020-09-10 04:00:00 18.3 4 Sudeste 11 Este 0 -- -- 74
2020-09-10 03:00:00 19 10 Sudeste 20 Sudeste 0 -- -- 74
2020-09-10 02:00:00 19.7 9 Sudeste 21 Este 0 -- -- 72
2020-09-10 01:00:00 20.1 7 Este 21 Este 0 -- -- 67
2020-09-10 00:00:00 21.3 12 Este 24 Este 0 -- -- 62
2020-09-09 23:00:00 21.8 12 Sudeste 19 Este 0 -- -- 59
2020-09-09 22:00:00 23.4 13 Sudeste 25 Este 0 -- -- 53
2020-09-09 21:00:00 25 9 Sur 14 Sudeste 0 -- -- 47
2020-09-09 20:00:00 27.7 10 Sur 20 Sur 0 -- -- 41
2020-09-09 19:00:00 29.9 12 Sudoeste 22 Sudoeste 0 -- -- 36
2020-09-09 18:00:00 30.2 14 Sur 23 Sudoeste 0 -- -- 35
2020-09-09 17:00:00 30.6 17 Sudoeste 26 Sudoeste 0 -- -- 34
2020-09-09 16:00:00 30.8 15 Sur 27 Sudoeste 0 -- -- 32
2020-09-09 15:00:00 30.5 14 Sudoeste 27 Este 0 -- -- 31
2020-09-09 14:00:00 30 11 Sudoeste 27 Sur 0 -- -- 32
2020-09-09 13:00:00 28.6 17 Sur 29 Sur 0 -- -- 34
2020-09-09 12:00:00 27.8 13 Sur 32 Sur 0 -- -- 35
2020-09-09 11:00:00 25.4 5 Nordeste 12 Nordeste 0 -- -- 41
2020-09-09 10:00:00 21.8 4 Norte 7 Norte 0 -- -- 50
2020-09-09 09:00:00 17.8 0 Calma 13 Este 0 -- -- 60
2020-09-09 08:00:00 17.9 0 Calma 10 Este 0 -- -- 58
2020-09-09 07:00:00 18 4 Este 6 Sudeste 0 -- -- 58
2020-09-09 06:00:00 19.1 3 Nordeste 5 Nordeste 0 -- -- 56
2020-09-09 05:00:00 20.1 0 Calma 15 Este 0 -- -- 53
2020-09-09 04:00:00 21.6 8 Sudeste 21 Este 0 -- -- 49
2020-09-09 03:00:00 22.1 13 Sudeste 22 Sudeste 0 -- -- 48
2020-09-09 02:00:00 22.5 9 Sudeste 30 Sudeste 0 -- -- 47
2020-09-09 01:00:00 23.2 17 Sudeste 34 Sudeste 0 -- -- 43
2020-09-09 00:00:00 23.4 12 Sudeste 23 Sudeste 0 -- -- 47
2020-09-08 23:00:00 23.8 14 Sudeste 29 Sudeste 0 -- -- 47
2020-09-08 22:00:00 23.8 18 Sudeste 35 Sudeste 0 -- -- 54
2020-09-08 21:00:00 24.3 9 Sur 31 Sur 0 -- -- 55
2020-09-08 20:00:00 26.4 10 Sur 28 Sur 0 -- -- 50
2020-09-08 19:00:00 28.2 12 Sur 30 Sur 0 -- -- 47
2020-09-08 18:00:00 28.7 17 Sur 39 Sur 0 -- -- 47
2020-09-08 17:00:00 29.1 21 Sur 39 Sur 0 -- -- 46
2020-09-08 16:00:00 29.7 21 Sur 39 Sur 0 -- -- 45
2020-09-08 15:00:00 29.3 21 Sur 40 Sur 0 -- -- 45
2020-09-08 14:00:00 29.5 21 Sur 35 Sur 0 -- -- 44
2020-09-08 13:00:00 29.4 17 Sur 32 Este 0 -- -- 43
2020-09-08 12:00:00 28.7 10 Sur 25 Sur 0 -- -- 42
2020-09-08 11:00:00 27.3 12 Sudeste 20 Sur 0 -- -- 45
2020-09-08 10:00:00 24.4 4 Noroeste 11 Este 0 -- -- 57
2020-09-08 09:00:00 22.7 9 Sudeste 21 Este 0 -- -- 63
2020-09-08 08:00:00 22.3 13 Sudeste 26 Sudeste 0 -- -- 65
2020-09-08 07:00:00 22.2 13 Sudeste 28 Este 0 -- -- 63
2020-09-08 06:00:00 22.6 14 Este 33 Sudeste 0 -- -- 60
2020-09-08 05:00:00 22.7 13 Este 42 Este 0 -- -- 61
2020-09-08 04:00:00 22.7 21 Este 44 Sudeste 0 -- -- 63
2020-09-08 03:00:00 22.6 20 Este 41 Este 0 -- -- 69
2020-09-08 02:00:00 22.3 20 Este 36 Sudeste 0 -- -- 71
2020-09-08 01:00:00 22.9 17 Sudeste 26 Este 0 -- -- 55
2020-09-08 00:00:00 23.8 5 Norte 7 Este 0 -- -- 52
2020-09-07 23:00:00 25.4 6 Sudeste 11 Este 0 -- -- 46
2020-09-07 22:00:00 27.6 0 Calma 9 Oeste 0 -- -- 41
2020-09-07 21:00:00 30.1 4 Oeste 20 Oeste 0 -- -- 36
2020-09-07 20:00:00 33.4 12 Oeste 24 Oeste 0 -- -- 33
2020-09-07 19:00:00 35.3 9 Oeste 20 Noroeste 0 -- -- 25
2020-09-07 18:00:00 34.9 10 Noroeste 25 Oeste 0 -- -- 27
2020-09-07 17:00:00 35.3 14 Noroeste 24 Oeste 0 -- -- 27
2020-09-07 16:00:00 34.7 13 Oeste 25 Oeste 0 -- -- 30
2020-09-07 15:00:00 33.8 13 Noroeste 23 Noroeste 0 -- -- 33
2020-09-07 14:00:00 32.5 9 Oeste 19 Oeste 0 -- -- 36
2020-09-07 13:00:00 31.3 8 Noroeste 17 Oeste 0 -- -- 39
2020-09-07 12:00:00 29.5 5 Oeste 12 Oeste 0 -- -- 42
2020-09-07 11:00:00 26.1 4 Noroeste 7 Norte 0 -- -- 52
2020-09-07 10:00:00 22 3 Noroeste 5 Sudoeste 0 -- -- 64
2020-09-07 09:00:00 18.8 0 Calma 6 Nordeste 0 -- -- 76
2020-09-07 08:00:00 18.2 4 Sudeste 6 Sudeste 0 -- -- 76
2020-09-07 07:00:00 19 0 Calma 9 Este 0 -- -- 74
2020-09-07 06:00:00 19.2 0 Calma 5 Este 0 -- -- 73
2020-09-07 05:00:00 20.1 3 Noroeste 19 Sudeste 0 -- -- 70
2020-09-07 04:00:00 20.7 7 Sudeste 14 Sudeste 0 -- -- 68
2020-09-07 03:00:00 21 5 Sudeste 13 Sudeste 0 -- -- 67
2020-09-07 02:00:00 21.4 4 Nordeste 17 Sudeste 0 -- -- 66
2020-09-07 01:00:00 22.6 8 Este 26 Este 0 -- -- 62
2020-09-07 00:00:00 23.1 13 Este 27 Este 0 -- -- 61
2020-09-06 23:00:00 23.6 11 Sudeste 26 Sudeste 0 -- -- 60
2020-09-06 22:00:00 24.2 15 Este 34 Este 0 -- -- 59
2020-09-06 21:00:00 25.1 17 Este 32 Este 0 -- -- 57
2020-09-06 20:00:00 27.8 16 Este 26 Sur 0 -- -- 50
2020-09-06 19:00:00 29.5 18 Sur 28 Sur 0 -- -- 47
2020-09-06 18:00:00 30.5 18 Sur 32 Sudoeste 0 -- -- 44
2020-09-06 17:00:00 31 21 Sudoeste 39 Sur 0 -- -- 43
2020-09-06 16:00:00 31.3 22 Sur 36 Sur 0 -- -- 41
2020-09-06 15:00:00 30.9 24 Sur 39 Sur 0 -- -- 42
2020-09-06 14:00:00 30.4 21 Sur 37 Sur 0 -- -- 43
2020-09-06 13:00:00 29.3 21 Sur 37 Sur 0 -- -- 45
2020-09-06 12:00:00 28.6 18 Sur 27 Sur 0 -- -- 44
2020-09-06 11:00:00 26.5 10 Sudoeste 15 Sudoeste 0 -- -- 43
2020-09-06 10:00:00 23.7 5 Sur 13 Sur 0 -- -- 45
2020-09-06 09:00:00 18.6 8 Sudeste 14 Sudeste 0 -- -- 54
2020-09-06 08:00:00 18.5 4 Sudeste 16 Este 0 -- -- 55
2020-09-06 07:00:00 19 4 Sudeste 10 Sudeste 0 -- -- 56
2020-09-06 06:00:00 20 3 Nordeste 9 Nordeste 0 -- -- 56
2020-09-06 05:00:00 20.8 6 Este 13 Sudeste 0 -- -- 52
2020-09-06 04:00:00 20.8 8 Este 16 Sudeste 0 -- -- 54
2020-09-06 03:00:00 21.7 8 Sudeste 22 Este 0 -- -- 52
2020-09-06 02:00:00 23.2 6 Noroeste 25 Este 0 -- -- 48
2020-09-06 01:00:00 24 15 Este 28 Este 0 -- -- 42
2020-09-06 00:00:00 23.4 15 Sudeste 31 Este 0 -- -- 51
2020-09-05 23:00:00 23.3 17 Sudeste 32 Este 0 -- -- 59
2020-09-05 22:00:00 23.4 19 Este 30 Este 0 -- -- 62
2020-09-05 21:00:00 25.1 16 Este 27 Este 0 -- -- 56
2020-09-05 20:00:00 27.4 15 Sur 29 Sudoeste 0 -- -- 49
2020-09-05 19:00:00 29.7 17 Sudoeste 27 Sudoeste 0 -- -- 44
2020-09-05 18:00:00 30.7 17 Sudoeste 28 Sur 0 -- -- 42
2020-09-05 17:00:00 31.8 19 Sudoeste 31 Sur 0 -- -- 39
2020-09-05 16:00:00 31.9 17 Sudoeste 32 Sudoeste 0 -- -- 37
2020-09-05 15:00:00 31.3 18 Sur 33 Sudoeste 0 -- -- 37
2020-09-05 14:00:00 30.9 21 Sudoeste 36 Sur 0 -- -- 36
2020-09-05 13:00:00 30 20 Sur 33 Sur 0 -- -- 34
2020-09-05 12:00:00 28.7 16 Sur 30 Sur 0 -- -- 35
2020-09-05 11:00:00 26.6 7 Sur 12 Sudeste 0 -- -- 39
2020-09-05 10:00:00 22.6 2 Oeste 7 Sudeste 0 -- -- 44
2020-09-05 09:00:00 18.2 6 Este 11 Este 0 -- -- 53
2020-09-05 08:00:00 16.8 4 Este 10 Este 0 -- -- 56
2020-09-05 07:00:00 17.7 8 Este 11 Este 0 -- -- 52
2020-09-05 06:00:00 18.4 6 Este 10 Sudeste 0 -- -- 49
2020-09-05 05:00:00 19.2 3 Nordeste 10 Este 0 -- -- 46
2020-09-05 04:00:00 20.2 4 Este 8 Este 0 -- -- 44
2020-09-05 03:00:00 20.6 3 Sudeste 16 Sudeste 0 -- -- 44
2020-09-05 02:00:00 21.7 12 Sudeste 17 Sudeste 0 -- -- 42
2020-09-05 01:00:00 22.6 11 Sudeste 23 Este 0 -- -- 42
2020-09-05 00:00:00 23.4 13 Sudeste 23 Este 0 -- -- 42
2020-09-04 23:00:00 23.1 5 Sudeste 14 Sur 0 -- -- 50
2020-09-04 22:00:00 23.4 8 Sur 18 Sudoeste 0 -- -- 53
2020-09-04 21:00:00 24.5 14 Sudoeste 28 Sur 0 -- -- 54
2020-09-04 20:00:00 27.2 16 Sur 35 Sudoeste 0 -- -- 47
2020-09-04 19:00:00 29 18 Sudoeste 39 Sur 0 -- -- 43
2020-09-04 18:00:00 31 16 Sur 32 Sudeste 0 -- -- 37
2020-09-04 17:00:00 31.1 19 Sur 37 Sur 0 -- -- 37
2020-09-04 16:00:00 31.3 20 Sur 38 Sur 0 -- -- 34
2020-09-04 15:00:00 31.2 22 Sur 35 Sur 0 -- -- 32
2020-09-04 14:00:00 30.7 21 Sur 41 Sur 0 -- -- 32
2020-09-04 13:00:00 29 22 Sur 36 Sur 0 -- -- 35
2020-09-04 12:00:00 28.4 18 Sur 28 Sur 0 -- -- 36
2020-09-04 11:00:00 26.8 10 Norte 18 Norte 0 -- -- 30
2020-09-04 10:00:00 24.6 5 Norte 10 Norte 0 -- -- 34
2020-09-04 09:00:00 20.3 5 Norte 8 Norte 0 -- -- 40
2020-09-04 08:00:00 19.2 3 Norte 9 Este 0 -- -- 42
2020-09-04 07:00:00 20.2 4 Norte 6 Norte 0 -- -- 40
2020-09-04 06:00:00 21.4 4 Norte 16 Norte 0 -- -- 37
2020-09-04 05:00:00 24.1 6 Este 27 Sudeste 0 -- -- 30
2020-09-04 04:00:00 25.1 18 Sudeste 40 Sudeste 0 -- -- 29
2020-09-04 03:00:00 25.7 24 Sudeste 41 Sudeste 0 -- -- 28
2020-09-04 02:00:00 25.7 21 Sudeste 40 Sudeste 0 -- -- 28
2020-09-04 01:00:00 26 25 Sudeste 43 Sudeste 0 -- -- 29
2020-09-04 00:00:00 26.3 29 Sudeste 46 Sudeste 0 -- -- 27
2020-09-03 23:00:00 26.6 26 Sudeste 39 Sudeste 0 -- -- 27
2020-09-03 22:00:00 26.8 19 Sudeste 29 Sudeste 0 -- -- 30
2020-09-03 21:00:00 27.6 22 Sudeste 37 Sudeste 0 -- -- 30
2020-09-03 20:00:00 29.6 21 Sudeste 40 Sudeste 0 -- -- 26
2020-09-03 19:00:00 30.9 25 Sudeste 45 Sudeste 0 -- -- 25
2020-09-03 18:00:00 32 20 Sudeste 42 Sudeste 0 -- -- 25
2020-09-03 17:00:00 32.1 24 Sudeste 43 Sudeste 0 -- -- 26
2020-09-03 16:00:00 32.2 23 Sudeste 45 Este 0 -- -- 27
2020-09-03 15:00:00 32.1 21 Sudeste 39 Sudeste 0 -- -- 28
2020-09-03 14:00:00 31.4 20 Este 33 Este 0 -- -- 29
2020-09-03 13:00:00 30.6 17 Sudeste 37 Este 0 -- -- 30
2020-09-03 12:00:00 30.1 15 Sudeste 26 Sudeste 0 -- -- 29
2020-09-03 11:00:00 29 12 Sudeste 30 Sudeste 0 -- -- 29
2020-09-03 10:00:00 26 5 Oeste 29 Sudeste 0 -- -- 32
2020-09-03 09:00:00 18.6 2 Noroeste 12 Norte 0 -- -- 51
2020-09-03 08:00:00 17.9 4 Norte 11 Sudeste 0 -- -- 52
2020-09-03 07:00:00 19 6 Sudeste 16 Este 0 -- -- 47
2020-09-03 06:00:00 19.7 8 Este 13 Este 0 -- -- 46
2020-09-03 05:00:00 19.5 2 Nordeste 5 Este 0 -- -- 46
2020-09-03 04:00:00 20.2 2 Norte 10 Noroeste 0 -- -- 45
2020-09-03 03:00:00 21.7 3 Este 9 Este 0 -- -- 43
2020-09-03 02:00:00 23.3 3 Sudeste 23 Sudeste 0 -- -- 41
2020-09-03 01:00:00 24 9 Sudeste 27 Este 0 -- -- 42
2020-09-03 00:00:00 22.5 11 Sudeste 21 Sudeste 0 -- -- 48
2020-09-02 23:00:00 22.7 12 Sudeste 23 Este 0 -- -- 52
2020-09-02 22:00:00 23.6 8 Sudeste 15 Sur 0 -- -- 50
2020-09-02 21:00:00 25.1 9 Sudoeste 16 Sudoeste 0 -- -- 47
2020-09-02 20:00:00 27.8 8 Sur 28 Sudoeste 0 -- -- 39
2020-09-02 19:00:00 30.3 6 Sudeste 30 Sur 0 -- -- 35
2020-09-02 18:00:00 30.6 17 Sur 31 Sudoeste 0 -- -- 37
2020-09-02 17:00:00 30.1 17 Sur 30 Sudoeste 0 -- -- 40
2020-09-02 16:00:00 31.7 13 Sur 27 Sur 0 -- -- 34
2020-09-02 15:00:00 31.5 6 Noroeste 19 Oeste 0 -- -- 34
2020-09-02 14:00:00 30 6 Oeste 20 Sudoeste 0 -- -- 37
2020-09-02 13:00:00 28.5 7 Oeste 18 Sudoeste 0 -- -- 40
2020-09-02 12:00:00 27.3 9 Sudoeste 18 Sudoeste 0 -- -- 43
2020-09-02 11:00:00 24.6 4 Noroeste 6 Oeste 0 -- -- 46
2020-09-02 10:00:00 20.3 3 Noroeste 12 Sudeste 0 -- -- 54
2020-09-02 09:00:00 16.4 3 Norte 15 Sudeste 0 -- -- 62
2020-09-02 08:00:00 14.8 2 Este 11 Sudeste 0 -- -- 65
2020-09-02 07:00:00 15.2 3 Sudeste 12 Sudeste 0 -- -- 61
2020-09-02 06:00:00 15.5 0 Calma 6 Norte 0 -- -- 64
2020-09-02 05:00:00 15.7 3 Noroeste 13 Este 0 -- -- 65
2020-09-02 04:00:00 16.2 3 Este 13 Este 0 -- -- 62
2020-09-02 03:00:00 16.5 8 Este 10 Este 0 -- -- 63
2020-09-02 02:00:00 16.9 3 Este 11 Sudeste 0 -- -- 61
2020-09-02 01:00:00 18.2 5 Este 9 Este 0 -- -- 59
2020-09-02 00:00:00 19.4 0 Calma 2 Noroeste 0 -- -- 62
2020-09-01 23:00:00 20.6 2 Norte 6 Sudeste 0 -- -- 58
2020-09-01 22:00:00 22.3 2 Nordeste 6 Nordeste 0 -- -- 49
2020-09-01 21:00:00 24.5 3 Oeste 20 Sudoeste 0 -- -- 44
2020-09-01 20:00:00 27.9 10 Oeste 26 Sudoeste 0 -- -- 35
2020-09-01 19:00:00 30.1 12 Oeste 22 Sudoeste 0 -- -- 31
2020-09-01 18:00:00 31 8 Noroeste 22 Noroeste 0 -- -- 26
2020-09-01 17:00:00 30.3 10 Noroeste 25 Noroeste 0 -- -- 27
2020-09-01 16:00:00 30.5 6 Oeste 19 Sudoeste 0 -- -- 26
2020-09-01 15:00:00 29.7 8 Sur 23 Sudoeste 0 -- -- 27
2020-09-01 14:00:00 28.5 6 Oeste 16 Oeste 0 -- -- 28
2020-09-01 13:00:00 28.2 9 Sudoeste 19 Sudoeste 0 -- -- 27
2020-09-01 12:00:00 26.4 8 Sudoeste 16 Sudoeste 0 -- -- 29
2020-09-01 11:00:00 25 3 Oeste 8 Sur 0 -- -- 33
2020-09-01 10:00:00 21.1 4 Sudeste 10 Este 0 -- -- 38
2020-09-01 09:00:00 17.5 4 Este 9 Norte 0 -- -- 44
2020-09-01 08:00:00 15.4 5 Norte 13 Este 0 -- -- 49
2020-09-01 07:00:00 16.4 9 Este 14 Sudeste 0 -- -- 45
2020-09-01 06:00:00 16.6 8 Este 10 Este 0 -- -- 44
2020-09-01 05:00:00 17.6 2 Nordeste 12 Este 0 -- -- 40
2020-09-01 04:00:00 18.7 3 Nordeste 9 Sudeste 0 -- -- 38
2020-09-01 03:00:00 20.8 5 Norte 9 Norte 0 -- -- 38
2020-09-01 02:00:00 21.6 5 Sur 15 Sur 0 -- -- 36
2020-09-01 01:00:00 22.2 11 Sur 19 Sur 0 -- -- 39
2020-09-01 00:00:00 22.6 8 Sudeste 16 Sudeste 0 -- -- 36
2020-08-31 23:00:00 23.3 9 Sur 21 Este 0 -- -- 36
2020-08-31 22:00:00 24.3 9 Sudeste 15 Sur 0 -- -- 34
2020-08-31 21:00:00 26.5 6 Sudeste 17 Sudeste 0 -- -- 32
2020-08-31 20:00:00 28.9 6 Sur 37 Sudeste 0 -- -- 30
2020-08-31 19:00:00 29.6 18 Sudeste 40 Sur 0 -- -- 31
2020-08-31 18:00:00 30.2 22 Sur 37 Sur 0 -- -- 31
2020-08-31 17:00:00 31 20 Sur 39 Sudoeste 0 -- -- 29
2020-08-31 16:00:00 30.4 22 Sur 43 Sur 0 -- -- 30
2020-08-31 15:00:00 30.3 21 Sur 38 Sur 0 -- -- 32
2020-08-31 14:00:00 30.4 13 Sudeste 36 Sur 0 -- -- 33
2020-08-31 13:00:00 29.5 13 Sudeste 31 Sudoeste 0 -- -- 31
2020-08-31 12:00:00 28.1 12 Sudeste 23 Sur 0 -- -- 33
2020-08-31 11:00:00 25.9 7 Sur 15 Sur 0 -- -- 40
2020-08-31 10:00:00 22 4 Noroeste 8 Norte 0 -- -- 51
2020-08-31 09:00:00 17.9 3 Norte 8 Nordeste 0 -- -- 61
2020-08-31 08:00:00 15.8 3 Norte 9 Este 0 -- -- 66
2020-08-31 07:00:00 15.4 0 Calma 12 Este 0 -- -- 67
2020-08-31 06:00:00 16.6 5 Este 11 Este 0 -- -- 65
2020-08-31 05:00:00 16.5 3 Sudeste 13 Este 0 -- -- 68
2020-08-31 04:00:00 16.8 6 Este 12 Este 0 -- -- 69
2020-08-31 03:00:00 17.5 9 Este 14 Sudeste 0 -- -- 68
2020-08-31 02:00:00 17.6 3 Este 15 Sudeste 0 -- -- 68
2020-08-31 01:00:00 18.6 10 Sudeste 14 Sudeste 0 -- -- 66
2020-08-31 00:00:00 20 7 Sudeste 15 Sudeste 0 -- -- 62
2020-08-30 23:00:00 22 12 Este 20 Este 0 -- -- 55
2020-08-30 22:00:00 23 11 Sudeste 17 Sudeste 0 -- -- 50
2020-08-30 21:00:00 24.6 4 Sur 27 Sur 0 -- -- 43
2020-08-30 20:00:00 26.8 19 Sur 32 Sur 0 -- -- 37
2020-08-30 19:00:00 29.1 19 Sur 28 Sur 0 -- -- 30
2020-08-30 18:00:00 30.3 15 Sur 29 Sudeste 0 -- -- 27
2020-08-30 17:00:00 31.2 17 Sur 30 Sudoeste 0 -- -- 26
2020-08-30 16:00:00 31.3 6 Oeste 26 Oeste 0 -- -- 22
2020-08-30 15:00:00 30.5 8 Sudoeste 20 Oeste 0 -- -- 24
2020-08-30 14:00:00 29.6 9 Sudoeste 23 Noroeste 0 -- -- 25
2020-08-30 13:00:00 28.4 5 Sudoeste 13 Oeste 0 -- -- 27
2020-08-30 12:00:00 25.5 5 Noroeste 10 Oeste 0 -- -- 27
2020-08-30 11:00:00 20 0 Calma 4 Norte 0 -- -- 46
2020-08-30 10:00:00 17.8 0 Calma 6 Este 0 -- -- 49
2020-08-30 09:00:00 15.8 3 Este 8 Sudeste 0 -- -- 50
2020-08-30 08:00:00 15 3 Este 7 Este 0 -- -- 52
2020-08-30 07:00:00 15 3 Este 9 Este 0 -- -- 51
2020-08-30 06:00:00 15 5 Nordeste 17 Este 0 -- -- 52
2020-08-30 05:00:00 14.4 3 Este 12 Sudeste 0 -- -- 58
2020-08-30 04:00:00 14.9 0 Calma 5 Este 0 -- -- 63
2020-08-30 03:00:00 15.3 4 Este 8 Este 0 -- -- 61
2020-08-30 02:00:00 16.1 3 Este 9 Sudeste 0 -- -- 59
2020-08-30 01:00:00 17.2 4 Este 8 Este 0 -- -- 60
2020-08-30 00:00:00 18.2 5 Sudeste 10 Este 0 -- -- 54
2020-08-29 23:00:00 19.7 5 Sudeste 9 Sudeste 0 -- -- 51
2020-08-29 22:00:00 21.7 2 Noroeste 10 Noroeste 0 -- -- 47
2020-08-29 21:00:00 23.7 4 Noroeste 28 Oeste 0 -- -- 42
2020-08-29 20:00:00 27.7 10 Noroeste 26 Noroeste 0 -- -- 24
2020-08-29 19:00:00 28.1 14 Noroeste 33 Noroeste 0 -- -- 24
2020-08-29 18:00:00 27.8 15 Norte 32 Noroeste 0 -- -- 24
2020-08-29 17:00:00 27 17 Noroeste 38 Noroeste 0 -- -- 27
2020-08-29 16:00:00 26.2 14 Noroeste 32 Noroeste 0 -- -- 25
2020-08-29 15:00:00 25.1 14 Noroeste 31 Noroeste 0 -- -- 28
2020-08-29 14:00:00 24.1 13 Noroeste 28 Oeste 0 -- -- 35
2020-08-29 13:00:00 23.3 11 Noroeste 22 Oeste 0 -- -- 37
2020-08-29 12:00:00 21.7 11 Noroeste 24 Norte 0 -- -- 44
2020-08-29 11:00:00 20.1 12 Noroeste 24 Norte 0 -- -- 49
2020-08-29 10:00:00 16.9 5 Noroeste 10 Noroeste 0 -- -- 57
2020-08-29 09:00:00 14.7 0 Calma 4 Noroeste 0 -- -- 64
2020-08-29 08:00:00 13.9 3 Noroeste 6 Noroeste 0 -- -- 66
2020-08-29 07:00:00 14.6 3 Noroeste 5 Noroeste 0 -- -- 63
2020-08-29 06:00:00 15.9 4 Noroeste 6 Noroeste 0 -- -- 59
2020-08-29 05:00:00 16.5 2 Nordeste 8 Noroeste 0 -- -- 59
2020-08-29 04:00:00 17.8 6 Norte 9 Norte 0 -- -- 55
2020-08-29 03:00:00 19 4 Este 7 Oeste 0 -- -- 65
2020-08-29 02:00:00 19.9 5 Este 8 Este 0 -- -- 69
2020-08-29 01:00:00 21.2 7 Este 9 Este 0 -- -- 70
2020-08-29 00:00:00 22.8 2 Sudeste 7 Oeste 0 -- -- 65
2020-08-28 23:00:00 24.2 2 Oeste 8 Sudoeste 0 -- -- 62
2020-08-28 22:00:00 25.1 5 Sudoeste 15 Oeste 0 -- -- 59
2020-08-28 21:00:00 26.7 6 Oeste 20 Oeste 0 -- -- 56
2020-08-28 20:00:00 28.1 9 Oeste 25 Oeste 0 -- -- 52
2020-08-28 19:00:00 30.2 13 Sudoeste 27 Oeste 0 -- -- 45
2020-08-28 18:00:00 31 14 Oeste 31 Sudoeste 0 -- -- 42
2020-08-28 17:00:00 31.6 10 Oeste 38 Oeste 0 -- -- 42
2020-08-28 16:00:00 30.4 12 Sudoeste 23 Noroeste 0 -- -- 45
2020-08-28 15:00:00 29.5 12 Noroeste 28 Sudoeste 0 -- -- 47
2020-08-28 14:00:00 29 12 Oeste 25 Oeste 0 -- -- 46
2020-08-28 13:00:00 28 8 Oeste 22 Oeste 0 -- -- 49
2020-08-28 12:00:00 26.6 9 Sur 19 Oeste 0 -- -- 53
2020-08-28 11:00:00 25.7 12 Sudeste 18 Sudeste 0 -- -- 52
2020-08-28 10:00:00 21.5 5 Noroeste 11 Noroeste 0 -- -- 68
2020-08-28 09:00:00 19.2 0 Calma 5 Este 0 -- -- 69
2020-08-28 08:00:00 18.7 7 Este 10 Este 0 -- -- 63
2020-08-28 07:00:00 18.6 0 Calma 8 Este 0 -- -- 62
2020-08-28 06:00:00 19.8 0 Calma 4 Nordeste 0 -- -- 58
2020-08-28 05:00:00 20.4 2 Norte 4 Norte 0 -- -- 55
2020-08-28 04:00:00 21.5 4 Nordeste 8 Este 0 -- -- 52
2020-08-28 03:00:00 22.3 3 Este 4 Este 0 -- -- 49
2020-08-28 02:00:00 23.1 0 Calma 10 Este 0 -- -- 47
2020-08-28 01:00:00 23.8 6 Sudeste 14 Sudeste 0 -- -- 44
2020-08-28 00:00:00 25.4 9 Este 11 Este 0 -- -- 39
2020-08-27 23:00:00 26.7 0 Calma 9 Este 0 -- -- 35
2020-08-27 22:00:00 29.2 4 Sudeste 8 Este 0 -- -- 30
2020-08-27 21:00:00 31.7 3 Sudoeste 19 Oeste 0 -- -- 25
2020-08-27 20:00:00 35.3 10 Oeste 23 Oeste 0 -- -- 23
2020-08-27 19:00:00 37 12 Oeste 25 Sudoeste 0 -- -- 22
2020-08-27 18:00:00 38.2 11 Oeste 26 Oeste 0 -- -- 21
2020-08-27 17:00:00 38.8 12 Oeste 28 Oeste 0 -- -- 17
2020-08-27 16:00:00 38.9 9 Oeste 27 Oeste 0 -- -- 17
2020-08-27 15:00:00 38.4 12 Noroeste 24 Oeste 0 -- -- 21
2020-08-27 14:00:00 37.2 10 Oeste 19 Oeste 0 -- -- 25
2020-08-27 13:00:00 35.9 6 Oeste 18 Noroeste 0 -- -- 26
2020-08-27 12:00:00 34.1 5 Noroeste 10 Oeste 0 -- -- 29
2020-08-27 11:00:00 30.3 4 Noroeste 8 Noroeste 0 -- -- 35
2020-08-27 10:00:00 26 0 Calma 5 Oeste 0 -- -- 46
2020-08-27 09:00:00 22.5 2 Norte 6 Este 0 -- -- 52
2020-08-27 08:00:00 21.3 0 Calma 8 Sudeste 0 -- -- 53
2020-08-27 07:00:00 21.4 0 Calma 7 Este 0 -- -- 52
2020-08-27 06:00:00 21.3 2 Este 6 Este 0 -- -- 54
2020-08-27 05:00:00 22.2 0 Calma 10 Este 0 -- -- 52
2020-08-27 04:00:00 22.8 6 Sudeste 8 Este 0 -- -- 48
2020-08-27 03:00:00 23.7 6 Este 8 Este 0 -- -- 48
2020-08-27 02:00:00 24.6 0 Calma 9 Este 0 -- -- 46
2020-08-27 01:00:00 25.4 3 Nordeste 8 Este 0 -- -- 47
2020-08-27 00:00:00 26.6 6 Este 12 Este 0 -- -- 45
2020-08-26 23:00:00 28.5 6 Este 12 Este 0 -- -- 43
2020-08-26 22:00:00 31 4 Sudeste 9 Sur 0 -- -- 39
2020-08-26 21:00:00 33.8 4 Noroeste 13 Noroeste 0 -- -- 31
2020-08-26 20:00:00 36.6 6 Noroeste 18 Oeste 0 -- -- 26
2020-08-26 19:00:00 38.2 11 Noroeste 21 Oeste 0 -- -- 25
2020-08-26 18:00:00 38.6 10 Noroeste 21 Noroeste 0 -- -- 23
2020-08-26 17:00:00 39.1 10 Oeste 23 Oeste 0 -- -- 19
2020-08-26 16:00:00 38.2 12 Noroeste 23 Oeste 0 -- -- 23
2020-08-26 15:00:00 37.3 11 Noroeste 24 Oeste 0 -- -- 25
2020-08-26 14:00:00 36.6 6 Sudoeste 15 Sudoeste 0 -- -- 29
2020-08-26 13:00:00 34.8 6 Noroeste 13 Sudoeste 0 -- -- 32
2020-08-26 12:00:00 32.1 4 Sudoeste 12 Sudoeste 0 -- -- 39
2020-08-26 11:00:00 29 4 Sudoeste 8 Sudoeste 0 -- -- 50
2020-08-26 10:00:00 24.2 4 Noroeste 9 Nordeste 0 -- -- 64
2020-08-26 09:00:00 20.7 3 Este 10 Sudeste 0 -- -- 74
2020-08-26 08:00:00 19.4 2 Este 10 Este 0 -- -- 78
2020-08-26 07:00:00 20.4 0 Calma 6 Este 0 -- -- 80
2020-08-26 06:00:00 20.4 4 Sudeste 5 Sudeste 0 -- -- 78
2020-08-26 05:00:00 21 0 Calma 8 Este 0 -- -- 81
2020-08-26 04:00:00 21.2 7 Este 10 Sudeste 0 -- -- 79
2020-08-26 03:00:00 21.8 5 Sudeste 8 Sudeste 0 -- -- 77
2020-08-26 02:00:00 22.7 3 Este 7 Este 0 -- -- 74
2020-08-26 01:00:00 23.5 3 Este 11 Este 0 -- -- 72
2020-08-26 00:00:00 24.5 11 Sudeste 16 Este 0 -- -- 68
2020-08-25 23:00:00 25.7 6 Sudeste 10 Este 0 -- -- 63
2020-08-25 22:00:00 27.6 5 Sur 13 Sur 0 -- -- 58
2020-08-25 21:00:00 30.1 8 Sur 15 Sur 0 -- -- 50
2020-08-25 20:00:00 33.7 9 Sudoeste 21 Sudoeste 0 -- -- 41
2020-08-25 19:00:00 35.1 13 Sudoeste 20 Sur 0 -- -- 35
2020-08-25 18:00:00 35.9 11 Sudoeste 26 Sudoeste 0 -- -- 32
2020-08-25 17:00:00 35.3 16 Sudoeste 28 Sudoeste 0 -- -- 35
2020-08-25 16:00:00 35.3 16 Sudoeste 28 Sudoeste 0 -- -- 37
2020-08-25 15:00:00 34.7 16 Sudoeste 27 Sudoeste 0 -- -- 39
2020-08-25 14:00:00 33.5 17 Sudoeste 26 Sudoeste 0 -- -- 42
2020-08-25 13:00:00 32.2 10 Sudoeste 20 Oeste 0 -- -- 43
2020-08-25 12:00:00 29.7 5 Sudoeste 12 Oeste 0 -- -- 49
2020-08-25 11:00:00 28.1 2 Noroeste 11 Oeste 0 -- -- 52
2020-08-25 10:00:00 24.9 3 Oeste 9 Sudeste 0 -- -- 63
2020-08-25 09:00:00 20.4 5 Sudeste 9 Sudeste 0 -- -- 79
2020-08-25 08:00:00 19.1 8 Este 14 Sudeste 0 -- -- 83
2020-08-25 07:00:00 19.3 4 Este 9 Sudeste 0 -- -- 83
2020-08-25 06:00:00 19.9 3 Nordeste 11 Este 0 -- -- 84
2020-08-25 05:00:00 20.2 5 Este 9 Este 0 -- -- 82
2020-08-25 04:00:00 21.2 4 Sudeste 9 Sudeste 0 -- -- 81
2020-08-25 03:00:00 22.3 3 Este 14 Sudeste 0 -- -- 79
2020-08-25 02:00:00 22.7 9 Sudeste 14 Este 0 -- -- 78
2020-08-25 01:00:00 23.1 4 Sudeste 12 Sudeste 0 -- -- 77
2020-08-25 00:00:00 24.3 10 Sudeste 19 Este 0 -- -- 73
2020-08-24 23:00:00 25.2 10 Sudeste 17 Este 0 -- -- 68
2020-08-24 22:00:00 26.3 9 Sur 20 Sudoeste 0 -- -- 64
2020-08-24 21:00:00 27.9 13 Sur 21 Sur 0 -- -- 59
2020-08-24 20:00:00 30.8 13 Sur 26 Sur 0 -- -- 51
2020-08-24 19:00:00 32.3 14 Sur 25 Sur 0 -- -- 47
2020-08-24 18:00:00 32.9 15 Sur 27 Sudoeste 0 -- -- 46
2020-08-24 17:00:00 33.3 15 Sur 28 Sudoeste 0 -- -- 44
2020-08-24 16:00:00 33.6 14 Sudoeste 30 Sudoeste 0 -- -- 44
2020-08-24 15:00:00 33.3 15 Sudoeste 33 Sudoeste 0 -- -- 43
2020-08-24 14:00:00 32.7 18 Sur 34 Sur 0 -- -- 44
2020-08-24 13:00:00 31.6 18 Sur 30 Sur 0 -- -- 46
2020-08-24 12:00:00 30 17 Sudoeste 27 Sur 0 -- -- 50
2020-08-24 11:00:00 28.3 7 Sudoeste 15 Sudoeste 0 -- -- 56
2020-08-24 10:00:00 26.5 8 Sudeste 17 Este 0 -- -- 59
2020-08-24 09:00:00 22.7 10 Sudeste 17 Sudeste 0 -- -- 68
2020-08-24 08:00:00 20.9 7 Este 17 Este 0 -- -- 67
2020-08-24 07:00:00 21.3 13 Sudeste 20 Sudeste 0 -- -- 71
2020-08-24 06:00:00 22.2 10 Sudeste 27 Este 0 -- -- 67
2020-08-24 05:00:00 22.3 13 Sudeste 22 Este 0 -- -- 71
2020-08-24 04:00:00 22.2 14 Sudeste 17 Sudeste 0 -- -- 64
2020-08-24 03:00:00 22.8 12 Sudeste 21 Este 0 -- -- 66
2020-08-24 02:00:00 21.6 3 Este 14 Este 0 -- -- 60
2020-08-24 01:00:00 22.3 5 Sudeste 12 Este 0 -- -- 57
2020-08-24 00:00:00 24.6 8 Sudeste 25 Este 0 -- -- 48
2020-08-23 23:00:00 25.9 13 Sudeste 20 Sudeste 0 -- -- 42
2020-08-23 22:00:00 27.8 6 Sudeste 9 Este 0 -- -- 32
2020-08-23 21:00:00 31.3 3 Norte 15 Oeste 0 -- -- 26
2020-08-23 20:00:00 33.5 10 Oeste 27 Oeste 0 -- -- 26
2020-08-23 19:00:00 35.5 15 Oeste 29 Oeste 0 -- -- 25
2020-08-23 18:00:00 37.1 14 Sudoeste 23 Oeste 0 -- -- 21
2020-08-23 17:00:00 37.7 12 Oeste 29 Sur 0 -- -- 16
2020-08-23 16:00:00 37.3 8 Noroeste 23 Oeste 0 -- -- 19
2020-08-23 15:00:00 36.4 9 Noroeste 21 Noroeste 0 -- -- 19
2020-08-23 14:00:00 35.1 10 Noroeste 21 Oeste 0 -- -- 23
2020-08-23 13:00:00 34.1 10 Noroeste 20 Oeste 0 -- -- 24
2020-08-23 12:00:00 31.6 3 Oeste 9 Oeste 0 -- -- 28
2020-08-23 11:00:00 28 4 Sudoeste 9 Sudoeste 0 -- -- 36
2020-08-23 10:00:00 24.5 4 Sur 10 Sudeste 0 -- -- 42
2020-08-23 09:00:00 19.9 2 Sur 8 Este 0 -- -- 53
2020-08-23 08:00:00 18.8 4 Norte 10 Este 0 -- -- 53
2020-08-23 07:00:00 20.8 6 Este 13 Norte 0 -- -- 49
2020-08-23 06:00:00 19.7 2 Nordeste 11 Norte 0 -- -- 53
2020-08-23 05:00:00 20.4 2 Noroeste 5 Oeste 0 -- -- 53
2020-08-23 04:00:00 20.7 2 Este 9 Este 0 -- -- 52
2020-08-23 03:00:00 21.1 5 Este 10 Este 0 -- -- 52
2020-08-23 02:00:00 21.7 3 Sudeste 10 Nordeste 0 -- -- 52
2020-08-23 01:00:00 23 4 Este 11 Este 0 -- -- 52
2020-08-23 00:00:00 24.6 6 Este 11 Este 0 -- -- 49